sensor_id;sensor_type;location;lat;lon;timestamp;P1;durP1;ratioP1;P2;durP2;ratioP2
10987;SDS011;5547;42.672;23.230;2023-02-22T00:00:17;2.33;;;1.35;;
10987;SDS011;5547;42.672;23.230;2023-02-22T00:03:20;2.17;;;1.40;;
10987;SDS011;5547;42.672;23.230;2023-02-22T00:06:28;3.08;;;1.50;;
10987;SDS011;5547;42.672;23.230;2023-02-22T00:09:30;2.80;;;1.30;;
10987;SDS011;5547;42.672;23.230;2023-02-22T00:12:30;2.20;;;1.23;;
10987;SDS011;5547;42.672;23.230;2023-02-22T00:15:30;2.80;;;1.60;;
10987;SDS011;5547;42.672;23.230;2023-02-22T00:18:31;3.03;;;1.40;;
10987;SDS011;5547;42.672;23.230;2023-02-22T00:21:31;3.88;;;1.70;;
10987;SDS011;5547;42.672;23.230;2023-02-22T00:24:31;3.00;;;1.90;;
10987;SDS011;5547;42.672;23.230;2023-02-22T00:27:32;2.80;;;1.80;;
10987;SDS011;5547;42.672;23.230;2023-02-22T00:30:32;3.20;;;1.60;;
10987;SDS011;5547;42.672;23.230;2023-02-22T00:33:33;2.33;;;1.50;;
10987;SDS011;5547;42.672;23.230;2023-02-22T00:36:35;2.80;;;1.70;;
10987;SDS011;5547;42.672;23.230;2023-02-22T00:39:35;2.97;;;1.70;;
10987;SDS011;5547;42.672;23.230;2023-02-22T00:42:36;3.00;;;1.60;;
10987;SDS011;5547;42.672;23.230;2023-02-22T00:45:37;3.53;;;1.87;;
10987;SDS011;5547;42.672;23.230;2023-02-22T00:48:37;3.28;;;2.00;;
10987;SDS011;5547;42.672;23.230;2023-02-22T00:51:37;2.13;;;1.55;;
10987;SDS011;5547;42.672;23.230;2023-02-22T00:54:38;3.53;;;1.70;;
10987;SDS011;5547;42.672;23.230;2023-02-22T00:57:38;3.10;;;1.70;;
10987;SDS011;5547;42.672;23.230;2023-02-22T01:00:39;3.50;;;2.20;;
10987;SDS011;5547;42.672;23.230;2023-02-22T01:03:41;3.88;;;2.45;;
10987;SDS011;5547;42.672;23.230;2023-02-22T01:06:41;3.73;;;1.80;;
10987;SDS011;5547;42.672;23.230;2023-02-22T01:09:42;3.70;;;2.07;;
10987;SDS011;5547;42.672;23.230;2023-02-22T01:12:43;3.13;;;1.70;;
10987;SDS011;5547;42.672;23.230;2023-02-22T01:15:44;3.13;;;1.80;;
10987;SDS011;5547;42.672;23.230;2023-02-22T01:18:45;3.00;;;2.00;;
10987;SDS011;5547;42.672;23.230;2023-02-22T01:21:45;3.10;;;1.90;;
10987;SDS011;5547;42.672;23.230;2023-02-22T01:24:47;2.20;;;1.50;;
10987;SDS011;5547;42.672;23.230;2023-02-22T01:27:48;3.00;;;1.60;;
10987;SDS011;5547;42.672;23.230;2023-02-22T01:30:50;2.67;;;1.90;;
10987;SDS011;5547;42.672;23.230;2023-02-22T01:33:51;2.03;;;1.80;;
10987;SDS011;5547;42.672;23.230;2023-02-22T01:36:52;2.40;;;1.83;;
10987;SDS011;5547;42.672;23.230;2023-02-22T01:39:53;2.70;;;2.00;;
10987;SDS011;5547;42.672;23.230;2023-02-22T01:42:54;3.20;;;1.90;;
10987;SDS011;5547;42.672;23.230;2023-02-22T01:49:03;2.83;;;2.08;;
10987;SDS011;5547;42.672;23.230;2023-02-22T01:52:06;3.08;;;1.60;;
10987;SDS011;5547;42.672;23.230;2023-02-22T01:55:10;2.47;;;1.70;;
10987;SDS011;5547;42.672;23.230;2023-02-22T01:58:10;2.08;;;1.58;;
10987;SDS011;5547;42.672;23.230;2023-02-22T02:01:13;2.78;;;1.50;;
10987;SDS011;5547;42.672;23.230;2023-02-22T02:04:17;3.10;;;1.70;;
10987;SDS011;5547;42.672;23.230;2023-02-22T02:07:20;2.95;;;1.60;;
10987;SDS011;5547;42.672;23.230;2023-02-22T02:10:22;2.40;;;1.60;;
10987;SDS011;5547;42.672;23.230;2023-02-22T02:13:24;2.10;;;1.60;;
10987;SDS011;5547;42.672;23.230;2023-02-22T02:16:36;2.67;;;1.70;;
10987;SDS011;5547;42.672;23.230;2023-02-22T02:33:41;2.03;;;1.40;;
10987;SDS011;5547;42.672;23.230;2023-02-22T02:36:55;2.83;;;1.50;;
10987;SDS011;5547;42.672;23.230;2023-02-22T02:47:14;2.55;;;1.77;;
10987;SDS011;5547;42.672;23.230;2023-02-22T02:50:35;2.38;;;1.55;;
10987;SDS011;5547;42.672;23.230;2023-02-22T02:53:43;2.08;;;1.52;;
10987;SDS011;5547;42.672;23.230;2023-02-22T02:56:47;2.90;;;1.50;;
10987;SDS011;5547;42.672;23.230;2023-02-22T02:59:47;2.37;;;1.47;;
10987;SDS011;5547;42.672;23.230;2023-02-22T03:19:36;1.77;;;1.50;;
10987;SDS011;5547;42.672;23.230;2023-02-22T03:22:46;2.30;;;1.40;;
10987;SDS011;5547;42.672;23.230;2023-02-22T03:26:00;2.23;;;1.40;;
10987;SDS011;5547;42.672;23.230;2023-02-22T03:29:06;2.80;;;1.60;;
10987;SDS011;5547;42.672;23.230;2023-02-22T03:32:18;2.33;;;1.60;;
10987;SDS011;5547;42.672;23.230;2023-02-22T03:35:27;2.20;;;1.60;;
10987;SDS011;5547;42.672;23.230;2023-02-22T03:38:32;2.37;;;1.40;;
10987;SDS011;5547;42.672;23.230;2023-02-22T03:41:36;3.33;;;1.85;;
10987;SDS011;5547;42.672;23.230;2023-02-22T03:44:38;4.22;;;2.63;;
10987;SDS011;5547;42.672;23.230;2023-02-22T03:47:44;2.83;;;1.80;;
10987;SDS011;5547;42.672;23.230;2023-02-22T03:50:49;3.20;;;1.50;;
10987;SDS011;5547;42.672;23.230;2023-02-22T03:53:50;3.45;;;1.90;;
10987;SDS011;5547;42.672;23.230;2023-02-22T03:56:57;2.90;;;1.73;;
10987;SDS011;5547;42.672;23.230;2023-02-22T04:00:06;3.10;;;1.85;;
10987;SDS011;5547;42.672;23.230;2023-02-22T04:03:10;4.07;;;1.60;;
10987;SDS011;5547;42.672;23.230;2023-02-22T04:06:10;2.93;;;1.70;;
10987;SDS011;5547;42.672;23.230;2023-02-22T04:09:11;3.15;;;1.70;;
10987;SDS011;5547;42.672;23.230;2023-02-22T04:12:11;3.00;;;1.90;;
10987;SDS011;5547;42.672;23.230;2023-02-22T04:15:13;4.47;;;1.67;;
10987;SDS011;5547;42.672;23.230;2023-02-22T04:18:15;3.42;;;1.80;;
10987;SDS011;5547;42.672;23.230;2023-02-22T04:21:15;2.67;;;1.90;;
10987;SDS011;5547;42.672;23.230;2023-02-22T04:24:16;3.87;;;1.70;;
10987;SDS011;5547;42.672;23.230;2023-02-22T04:27:16;2.40;;;1.73;;
10987;SDS011;5547;42.672;23.230;2023-02-22T04:30:18;2.53;;;1.60;;
10987;SDS011;5547;42.672;23.230;2023-02-22T04:33:19;3.50;;;1.90;;
10987;SDS011;5547;42.672;23.230;2023-02-22T04:36:19;3.47;;;1.87;;
10987;SDS011;5547;42.672;23.230;2023-02-22T04:39:20;4.22;;;2.65;;
10987;SDS011;5547;42.672;23.230;2023-02-22T04:42:21;3.30;;;2.30;;
10987;SDS011;5547;42.672;23.230;2023-02-22T04:45:21;3.10;;;2.20;;
10987;SDS011;5547;42.672;23.230;2023-02-22T04:48:21;4.60;;;2.88;;
10987;SDS011;5547;42.672;23.230;2023-02-22T04:51:22;5.03;;;2.70;;
10987;SDS011;5547;42.672;23.230;2023-02-22T04:54:23;3.38;;;2.20;;
10987;SDS011;5547;42.672;23.230;2023-02-22T04:57:24;3.70;;;2.17;;
10987;SDS011;5547;42.672;23.230;2023-02-22T05:00:24;3.33;;;2.15;;
10987;SDS011;5547;42.672;23.230;2023-02-22T05:03:25;3.70;;;2.30;;
10987;SDS011;5547;42.672;23.230;2023-02-22T05:06:25;3.83;;;2.53;;
10987;SDS011;5547;42.672;23.230;2023-02-22T05:09:26;3.90;;;2.40;;
10987;SDS011;5547;42.672;23.230;2023-02-22T05:12:26;3.33;;;2.38;;
10987;SDS011;5547;42.672;23.230;2023-02-22T05:15:27;3.30;;;2.10;;
10987;SDS011;5547;42.672;23.230;2023-02-22T05:18:27;3.10;;;2.07;;
10987;SDS011;5547;42.672;23.230;2023-02-22T05:21:29;4.32;;;2.70;;
10987;SDS011;5547;42.672;23.230;2023-02-22T05:24:30;4.43;;;2.50;;
10987;SDS011;5547;42.672;23.230;2023-02-22T05:27:31;3.35;;;2.25;;
10987;SDS011;5547;42.672;23.230;2023-02-22T05:30:32;3.63;;;2.47;;
10987;SDS011;5547;42.672;23.230;2023-02-22T05:33:34;3.67;;;2.30;;
10987;SDS011;5547;42.672;23.230;2023-02-22T05:36:34;7.97;;;5.07;;
10987;SDS011;5547;42.672;23.230;2023-02-22T05:39:35;8.18;;;4.28;;
10987;SDS011;5547;42.672;23.230;2023-02-22T05:42:36;5.22;;;3.38;;
10987;SDS011;5547;42.672;23.230;2023-02-22T05:45:36;7.63;;;4.73;;
10987;SDS011;5547;42.672;23.230;2023-02-22T05:48:37;17.25;;;12.68;;
10987;SDS011;5547;42.672;23.230;2023-02-22T05:51:37;8.52;;;5.03;;
10987;SDS011;5547;42.672;23.230;2023-02-22T05:54:38;5.50;;;3.60;;
10987;SDS011;5547;42.672;23.230;2023-02-22T05:57:38;5.33;;;3.20;;
10987;SDS011;5547;42.672;23.230;2023-02-22T06:00:39;4.18;;;2.47;;
10987;SDS011;5547;42.672;23.230;2023-02-22T06:03:39;3.90;;;2.30;;
10987;SDS011;5547;42.672;23.230;2023-02-22T06:06:40;4.95;;;2.53;;
10987;SDS011;5547;42.672;23.230;2023-02-22T06:09:41;3.57;;;2.77;;
10987;SDS011;5547;42.672;23.230;2023-02-22T06:12:41;3.63;;;2.20;;
10987;SDS011;5547;42.672;23.230;2023-02-22T06:15:43;3.97;;;2.67;;
10987;SDS011;5547;42.672;23.230;2023-02-22T06:18:44;4.90;;;2.40;;
10987;SDS011;5547;42.672;23.230;2023-02-22T06:22:02;11.15;;;8.15;;
10987;SDS011;5547;42.672;23.230;2023-02-22T06:25:04;11.00;;;6.85;;
10987;SDS011;5547;42.672;23.230;2023-02-22T06:28:05;13.10;;;9.05;;
10987;SDS011;5547;42.672;23.230;2023-02-22T06:31:05;19.70;;;12.43;;
10987;SDS011;5547;42.672;23.230;2023-02-22T06:34:06;21.33;;;14.13;;
10987;SDS011;5547;42.672;23.230;2023-02-22T06:37:06;20.30;;;13.73;;
10987;SDS011;5547;42.672;23.230;2023-02-22T06:40:07;16.10;;;11.70;;
10987;SDS011;5547;42.672;23.230;2023-02-22T06:43:10;10.45;;;6.30;;
10987;SDS011;5547;42.672;23.230;2023-02-22T06:46:11;8.30;;;4.50;;
10987;SDS011;5547;42.672;23.230;2023-02-22T06:49:12;4.33;;;2.90;;
10987;SDS011;5547;42.672;23.230;2023-02-22T06:52:13;6.28;;;2.90;;
10987;SDS011;5547;42.672;23.230;2023-02-22T06:55:19;4.50;;;2.70;;
10987;SDS011;5547;42.672;23.230;2023-02-22T06:58:21;5.18;;;2.53;;
10987;SDS011;5547;42.672;23.230;2023-02-22T07:01:21;4.73;;;2.93;;
10987;SDS011;5547;42.672;23.230;2023-02-22T07:04:22;3.87;;;2.83;;
10987;SDS011;5547;42.672;23.230;2023-02-22T07:07:22;23.85;;;14.70;;
10987;SDS011;5547;42.672;23.230;2023-02-22T07:10:25;20.02;;;12.90;;
10987;SDS011;5547;42.672;23.230;2023-02-22T07:13:27;23.92;;;13.48;;
10987;SDS011;5547;42.672;23.230;2023-02-22T07:16:28;17.33;;;10.43;;
10987;SDS011;5547;42.672;23.230;2023-02-22T07:19:29;15.30;;;9.07;;
10987;SDS011;5547;42.672;23.230;2023-02-22T07:22:29;20.53;;;11.03;;
10987;SDS011;5547;42.672;23.230;2023-02-22T07:25:30;23.10;;;11.90;;
10987;SDS011;5547;42.672;23.230;2023-02-22T07:28:30;22.50;;;11.88;;
10987;SDS011;5547;42.672;23.230;2023-02-22T07:31:35;18.50;;;11.40;;
10987;SDS011;5547;42.672;23.230;2023-02-22T07:34:39;19.58;;;11.93;;
10987;SDS011;5547;42.672;23.230;2023-02-22T07:37:41;19.60;;;11.88;;
10987;SDS011;5547;42.672;23.230;2023-02-22T07:40:42;15.77;;;10.20;;
10987;SDS011;5547;42.672;23.230;2023-02-22T07:43:43;13.67;;;9.00;;
10987;SDS011;5547;42.672;23.230;2023-02-22T07:46:47;14.40;;;8.80;;
10987;SDS011;5547;42.672;23.230;2023-02-22T07:49:49;13.47;;;8.17;;
10987;SDS011;5547;42.672;23.230;2023-02-22T07:52:52;16.90;;;8.57;;
10987;SDS011;5547;42.672;23.230;2023-02-22T07:55:57;15.15;;;10.20;;
10987;SDS011;5547;42.672;23.230;2023-02-22T07:58:59;17.92;;;10.13;;
10987;SDS011;5547;42.672;23.230;2023-02-22T08:02:00;17.00;;;11.00;;
10987;SDS011;5547;42.672;23.230;2023-02-22T08:05:01;21.95;;;13.25;;
10987;SDS011;5547;42.672;23.230;2023-02-22T08:08:02;21.83;;;13.67;;
10987;SDS011;5547;42.672;23.230;2023-02-22T08:11:05;23.67;;;11.48;;
10987;SDS011;5547;42.672;23.230;2023-02-22T08:14:05;16.80;;;9.27;;
10987;SDS011;5547;42.672;23.230;2023-02-22T08:17:06;10.10;;;6.13;;
10987;SDS011;5547;42.672;23.230;2023-02-22T08:20:06;6.97;;;4.17;;
10987;SDS011;5547;42.672;23.230;2023-02-22T08:23:08;12.70;;;7.70;;
10987;SDS011;5547;42.672;23.230;2023-02-22T08:26:10;13.90;;;7.65;;
10987;SDS011;5547;42.672;23.230;2023-02-22T08:29:14;12.95;;;8.00;;
10987;SDS011;5547;42.672;23.230;2023-02-22T08:32:15;13.83;;;6.90;;
10987;SDS011;5547;42.672;23.230;2023-02-22T08:35:16;13.45;;;7.25;;
10987;SDS011;5547;42.672;23.230;2023-02-22T08:41:21;15.00;;;8.65;;
10987;SDS011;5547;42.672;23.230;2023-02-22T08:44:22;17.23;;;9.73;;
10987;SDS011;5547;42.672;23.230;2023-02-22T08:47:24;14.32;;;7.97;;
10987;SDS011;5547;42.672;23.230;2023-02-22T08:50:29;10.40;;;6.18;;
10987;SDS011;5547;42.672;23.230;2023-02-22T08:53:32;9.57;;;5.50;;
10987;SDS011;5547;42.672;23.230;2023-02-22T08:56:33;11.27;;;5.80;;
10987;SDS011;5547;42.672;23.230;2023-02-22T08:59:34;8.38;;;4.65;;
10987;SDS011;5547;42.672;23.230;2023-02-22T09:02:35;8.47;;;4.50;;
10987;SDS011;5547;42.672;23.230;2023-02-22T09:05:36;6.60;;;3.70;;
10987;SDS011;5547;42.672;23.230;2023-02-22T09:08:37;5.72;;;3.53;;
10987;SDS011;5547;42.672;23.230;2023-02-22T09:11:37;6.22;;;4.15;;
10987;SDS011;5547;42.672;23.230;2023-02-22T09:14:39;7.83;;;4.40;;
10987;SDS011;5547;42.672;23.230;2023-02-22T09:17:41;6.73;;;4.50;;
10987;SDS011;5547;42.672;23.230;2023-02-22T09:20:42;6.30;;;3.90;;
10987;SDS011;5547;42.672;23.230;2023-02-22T09:23:43;6.32;;;4.10;;
10987;SDS011;5547;42.672;23.230;2023-02-22T09:26:47;6.93;;;4.00;;
10987;SDS011;5547;42.672;23.230;2023-02-22T09:29:53;7.93;;;4.10;;
10987;SDS011;5547;42.672;23.230;2023-02-22T09:32:56;5.73;;;4.00;;
10987;SDS011;5547;42.672;23.230;2023-02-22T09:35:59;7.78;;;3.95;;
10987;SDS011;5547;42.672;23.230;2023-02-22T09:39:01;5.25;;;3.58;;
10987;SDS011;5547;42.672;23.230;2023-02-22T09:45:13;6.87;;;4.10;;
10987;SDS011;5547;42.672;23.230;2023-02-22T09:48:18;6.27;;;3.80;;
10987;SDS011;5547;42.672;23.230;2023-02-22T09:51:20;6.20;;;3.63;;
10987;SDS011;5547;42.672;23.230;2023-02-22T09:54:23;6.03;;;3.70;;
10987;SDS011;5547;42.672;23.230;2023-02-22T09:57:36;6.20;;;4.00;;
10987;SDS011;5547;42.672;23.230;2023-02-22T10:00:39;5.82;;;3.53;;
10987;SDS011;5547;42.672;23.230;2023-02-22T10:07:03;5.80;;;3.80;;
10987;SDS011;5547;42.672;23.230;2023-02-22T10:10:06;5.73;;;3.67;;
10987;SDS011;5547;42.672;23.230;2023-02-22T10:13:30;5.82;;;3.08;;
10987;SDS011;5547;42.672;23.230;2023-02-22T10:17:00;4.83;;;3.13;;
10987;SDS011;5547;42.672;23.230;2023-02-22T10:23:33;5.68;;;3.08;;
10987;SDS011;5547;42.672;23.230;2023-02-22T10:26:41;5.70;;;2.55;;
10987;SDS011;5547;42.672;23.230;2023-02-22T10:29:45;6.45;;;4.78;;
10987;SDS011;5547;42.672;23.230;2023-02-22T10:32:56;11.43;;;7.95;;
10987;SDS011;5547;42.672;23.230;2023-02-22T10:36:04;3.65;;;2.90;;
10987;SDS011;5547;42.672;23.230;2023-02-22T10:39:39;3.70;;;2.55;;
10987;SDS011;5547;42.672;23.230;2023-02-22T10:42:35;4.57;;;3.58;;
10987;SDS011;5547;42.672;23.230;2023-02-22T10:45:36;4.30;;;2.70;;
10987;SDS011;5547;42.672;23.230;2023-02-22T10:48:37;4.37;;;2.63;;
10987;SDS011;5547;42.672;23.230;2023-02-22T10:51:40;4.20;;;2.83;;
10987;SDS011;5547;42.672;23.230;2023-02-22T10:54:41;4.40;;;2.78;;
10987;SDS011;5547;42.672;23.230;2023-02-22T10:57:45;4.63;;;3.22;;
10987;SDS011;5547;42.672;23.230;2023-02-22T11:00:48;5.45;;;3.15;;
10987;SDS011;5547;42.672;23.230;2023-02-22T11:03:57;4.40;;;2.92;;
10987;SDS011;5547;42.672;23.230;2023-02-22T11:10:02;5.00;;;2.87;;
10987;SDS011;5547;42.672;23.230;2023-02-22T11:16:32;3.88;;;2.13;;
10987;SDS011;5547;42.672;23.230;2023-02-22T11:19:59;3.77;;;1.93;;
10987;SDS011;5547;42.672;23.230;2023-02-22T11:23:01;4.00;;;2.30;;
10987;SDS011;5547;42.672;23.230;2023-02-22T11:29:10;3.10;;;1.90;;
10987;SDS011;5547;42.672;23.230;2023-02-22T11:32:17;3.10;;;2.10;;
10987;SDS011;5547;42.672;23.230;2023-02-22T11:38:31;3.17;;;1.92;;
10987;SDS011;5547;42.672;23.230;2023-02-22T11:41:33;3.40;;;2.00;;
10987;SDS011;5547;42.672;23.230;2023-02-22T11:44:34;2.25;;;1.75;;
10987;SDS011;5547;42.672;23.230;2023-02-22T11:47:35;3.33;;;2.00;;
10987;SDS011;5547;42.672;23.230;2023-02-22T12:00:34;2.90;;;1.73;;
10987;SDS011;5547;42.672;23.230;2023-02-22T12:04:04;2.67;;;1.60;;
10987;SDS011;5547;42.672;23.230;2023-02-22T12:10:46;2.20;;;1.40;;
10987;SDS011;5547;42.672;23.230;2023-02-22T12:20:26;2.55;;;1.63;;
10987;SDS011;5547;42.672;23.230;2023-02-22T12:27:09;4.15;;;2.90;;
10987;SDS011;5547;42.672;23.230;2023-02-22T12:33:31;3.33;;;2.53;;
10987;SDS011;5547;42.672;23.230;2023-02-22T12:36:44;2.55;;;1.80;;
10987;SDS011;5547;42.672;23.230;2023-02-22T12:42:59;3.35;;;2.80;;
10987;SDS011;5547;42.672;23.230;2023-02-22T12:46:11;3.57;;;3.00;;
10987;SDS011;5547;42.672;23.230;2023-02-22T12:49:37;4.50;;;3.00;;
10987;SDS011;5547;42.672;23.230;2023-02-22T12:52:55;3.33;;;2.72;;
10987;SDS011;5547;42.672;23.230;2023-02-22T12:56:13;4.60;;;2.92;;
10987;SDS011;5547;42.672;23.230;2023-02-22T12:59:29;4.80;;;3.10;;
10987;SDS011;5547;42.672;23.230;2023-02-22T13:02:40;3.72;;;2.70;;
10987;SDS011;5547;42.672;23.230;2023-02-22T13:05:45;4.80;;;2.50;;
10987;SDS011;5547;42.672;23.230;2023-02-22T13:12:27;3.88;;;2.83;;
10987;SDS011;5547;42.672;23.230;2023-02-22T13:15:56;3.78;;;2.53;;
10987;SDS011;5547;42.672;23.230;2023-02-22T13:19:25;3.55;;;2.53;;
10987;SDS011;5547;42.672;23.230;2023-02-22T13:29:30;4.35;;;3.00;;
10987;SDS011;5547;42.672;23.230;2023-02-22T13:51:53;3.57;;;2.57;;
10987;SDS011;5547;42.672;23.230;2023-02-22T13:55:10;3.57;;;2.77;;
10987;SDS011;5547;42.672;23.230;2023-02-22T13:58:16;3.55;;;2.90;;
10987;SDS011;5547;42.672;23.230;2023-02-22T14:01:37;5.07;;;3.60;;
10987;SDS011;5547;42.672;23.230;2023-02-22T14:04:40;4.33;;;3.03;;
10987;SDS011;5547;42.672;23.230;2023-02-22T14:07:44;4.93;;;3.53;;
10987;SDS011;5547;42.672;23.230;2023-02-22T14:10:51;3.63;;;3.27;;
10987;SDS011;5547;42.672;23.230;2023-02-22T14:21:03;5.30;;;3.83;;
10987;SDS011;5547;42.672;23.230;2023-02-22T14:24:11;5.07;;;3.55;;
10987;SDS011;5547;42.672;23.230;2023-02-22T14:27:14;5.07;;;3.60;;
10987;SDS011;5547;42.672;23.230;2023-02-22T14:30:26;5.82;;;3.60;;
10987;SDS011;5547;42.672;23.230;2023-02-22T14:33:49;4.82;;;3.83;;
10987;SDS011;5547;42.672;23.230;2023-02-22T14:40:18;4.63;;;3.90;;
10987;SDS011;5547;42.672;23.230;2023-02-22T14:43:19;6.20;;;3.88;;
10987;SDS011;5547;42.672;23.230;2023-02-22T14:46:24;5.35;;;4.18;;
10987;SDS011;5547;42.672;23.230;2023-02-22T14:49:29;5.65;;;4.22;;
10987;SDS011;5547;42.672;23.230;2023-02-22T14:52:36;4.63;;;3.77;;
10987;SDS011;5547;42.672;23.230;2023-02-22T14:55:42;6.37;;;4.47;;
10987;SDS011;5547;42.672;23.230;2023-02-22T15:02:17;5.22;;;4.10;;
10987;SDS011;5547;42.672;23.230;2023-02-22T15:05:19;6.00;;;4.60;;
10987;SDS011;5547;42.672;23.230;2023-02-22T15:08:19;6.22;;;4.55;;
10987;SDS011;5547;42.672;23.230;2023-02-22T15:11:28;5.40;;;4.32;;
10987;SDS011;5547;42.672;23.230;2023-02-22T15:14:33;5.67;;;4.23;;
10987;SDS011;5547;42.672;23.230;2023-02-22T15:17:38;5.22;;;4.15;;
10987;SDS011;5547;42.672;23.230;2023-02-22T15:20:39;5.18;;;4.40;;
10987;SDS011;5547;42.672;23.230;2023-02-22T15:26:42;5.70;;;4.20;;
10987;SDS011;5547;42.672;23.230;2023-02-22T15:29:43;5.85;;;4.32;;
10987;SDS011;5547;42.672;23.230;2023-02-22T15:32:44;6.63;;;4.70;;
10987;SDS011;5547;42.672;23.230;2023-02-22T15:35:45;7.60;;;4.18;;
10987;SDS011;5547;42.672;23.230;2023-02-22T15:38:53;6.37;;;4.67;;
10987;SDS011;5547;42.672;23.230;2023-02-22T15:42:02;7.45;;;4.85;;
10987;SDS011;5547;42.672;23.230;2023-02-22T15:45:11;6.63;;;4.72;;
10987;SDS011;5547;42.672;23.230;2023-02-22T15:48:17;7.78;;;5.25;;
10987;SDS011;5547;42.672;23.230;2023-02-22T15:51:18;5.88;;;4.97;;
10987;SDS011;5547;42.672;23.230;2023-02-22T15:54:19;6.03;;;4.60;;
10987;SDS011;5547;42.672;23.230;2023-02-22T15:57:21;6.03;;;4.30;;
10987;SDS011;5547;42.672;23.230;2023-02-22T16:00:29;6.87;;;4.57;;
10987;SDS011;5547;42.672;23.230;2023-02-22T16:03:54;7.53;;;4.75;;
10987;SDS011;5547;42.672;23.230;2023-02-22T16:07:01;5.40;;;4.57;;
10987;SDS011;5547;42.672;23.230;2023-02-22T16:10:06;8.30;;;5.03;;
10987;SDS011;5547;42.672;23.230;2023-02-22T16:13:09;5.97;;;5.00;;
10987;SDS011;5547;42.672;23.230;2023-02-22T16:16:21;7.20;;;5.32;;
10987;SDS011;5547;42.672;23.230;2023-02-22T16:22:33;7.53;;;5.55;;
10987;SDS011;5547;42.672;23.230;2023-02-22T16:25:34;6.68;;;4.95;;
10987;SDS011;5547;42.672;23.230;2023-02-22T16:28:36;6.57;;;5.15;;
10987;SDS011;5547;42.672;23.230;2023-02-22T16:31:50;7.05;;;4.82;;
10987;SDS011;5547;42.672;23.230;2023-02-22T16:34:51;9.03;;;5.20;;
10987;SDS011;5547;42.672;23.230;2023-02-22T16:38:24;6.67;;;5.40;;
10987;SDS011;5547;42.672;23.230;2023-02-22T16:41:18;8.55;;;6.32;;
10987;SDS011;5547;42.672;23.230;2023-02-22T16:44:18;12.27;;;8.47;;
10987;SDS011;5547;42.672;23.230;2023-02-22T16:47:19;13.03;;;8.00;;
10987;SDS011;5547;42.672;23.230;2023-02-22T16:50:20;11.52;;;7.38;;
10987;SDS011;5547;42.672;23.230;2023-02-22T16:53:23;10.13;;;7.28;;
10987;SDS011;5547;42.672;23.230;2023-02-22T16:56:28;11.43;;;7.20;;
10987;SDS011;5547;42.672;23.230;2023-02-22T16:59:35;8.98;;;6.28;;
10987;SDS011;5547;42.672;23.230;2023-02-22T17:02:37;7.25;;;5.50;;
10987;SDS011;5547;42.672;23.230;2023-02-22T17:05:38;8.97;;;5.30;;
10987;SDS011;5547;42.672;23.230;2023-02-22T17:08:39;10.27;;;6.88;;
10987;SDS011;5547;42.672;23.230;2023-02-22T17:11:41;8.85;;;7.25;;
10987;SDS011;5547;42.672;23.230;2023-02-22T17:14:43;12.83;;;11.30;;
10987;SDS011;5547;42.672;23.230;2023-02-22T17:17:45;12.23;;;10.93;;
10987;SDS011;5547;42.672;23.230;2023-02-22T17:20:46;10.70;;;9.30;;
10987;SDS011;5547;42.672;23.230;2023-02-22T17:23:46;7.93;;;7.10;;
10987;SDS011;5547;42.672;23.230;2023-02-22T17:26:47;6.70;;;4.88;;
10987;SDS011;5547;42.672;23.230;2023-02-22T17:29:48;7.32;;;5.30;;
10987;SDS011;5547;42.672;23.230;2023-02-22T17:32:49;6.75;;;5.00;;
10987;SDS011;5547;42.672;23.230;2023-02-22T17:35:50;6.80;;;5.17;;
10987;SDS011;5547;42.672;23.230;2023-02-22T17:38:51;7.05;;;5.43;;
10987;SDS011;5547;42.672;23.230;2023-02-22T17:41:51;6.93;;;5.23;;
10987;SDS011;5547;42.672;23.230;2023-02-22T17:44:56;7.35;;;5.20;;
10987;SDS011;5547;42.672;23.230;2023-02-22T17:47:57;6.43;;;5.00;;
10987;SDS011;5547;42.672;23.230;2023-02-22T17:51:03;7.22;;;5.40;;
10987;SDS011;5547;42.672;23.230;2023-02-22T17:54:04;7.55;;;4.63;;
10987;SDS011;5547;42.672;23.230;2023-02-22T17:57:05;6.72;;;5.38;;
10987;SDS011;5547;42.672;23.230;2023-02-22T18:00:06;7.77;;;5.40;;
10987;SDS011;5547;42.672;23.230;2023-02-22T18:03:12;8.52;;;5.50;;
10987;SDS011;5547;42.672;23.230;2023-02-22T18:06:16;7.13;;;5.53;;
10987;SDS011;5547;42.672;23.230;2023-02-22T18:09:19;6.93;;;5.18;;
10987;SDS011;5547;42.672;23.230;2023-02-22T18:12:19;7.13;;;5.47;;
10987;SDS011;5547;42.672;23.230;2023-02-22T18:15:20;6.77;;;5.10;;
10987;SDS011;5547;42.672;23.230;2023-02-22T18:18:20;8.63;;;7.37;;
10987;SDS011;5547;42.672;23.230;2023-02-22T18:21:22;10.98;;;9.90;;
10987;SDS011;5547;42.672;23.230;2023-02-22T18:24:25;21.95;;;18.73;;
10987;SDS011;5547;42.672;23.230;2023-02-22T18:27:26;23.48;;;20.92;;
10987;SDS011;5547;42.672;23.230;2023-02-22T18:30:29;17.60;;;15.73;;
10987;SDS011;5547;42.672;23.230;2023-02-22T18:33:29;8.77;;;7.32;;
10987;SDS011;5547;42.672;23.230;2023-02-22T18:36:29;8.63;;;7.33;;
10987;SDS011;5547;42.672;23.230;2023-02-22T18:39:30;8.03;;;6.30;;
10987;SDS011;5547;42.672;23.230;2023-02-22T18:42:39;9.85;;;6.20;;
10987;SDS011;5547;42.672;23.230;2023-02-22T18:45:39;8.20;;;5.93;;
10987;SDS011;5547;42.672;23.230;2023-02-22T18:48:40;8.93;;;5.77;;
10987;SDS011;5547;42.672;23.230;2023-02-22T18:51:40;7.97;;;5.97;;
10987;SDS011;5547;42.672;23.230;2023-02-22T18:54:42;7.15;;;5.78;;
10987;SDS011;5547;42.672;23.230;2023-02-22T18:57:43;6.57;;;5.50;;
10987;SDS011;5547;42.672;23.230;2023-02-22T19:00:44;6.97;;;5.70;;
10987;SDS011;5547;42.672;23.230;2023-02-22T19:03:48;6.70;;;5.28;;
10987;SDS011;5547;42.672;23.230;2023-02-22T19:06:52;7.00;;;5.15;;
10987;SDS011;5547;42.672;23.230;2023-02-22T19:09:53;7.50;;;5.47;;
10987;SDS011;5547;42.672;23.230;2023-02-22T19:12:53;8.17;;;5.23;;
10987;SDS011;5547;42.672;23.230;2023-02-22T19:15:53;7.47;;;5.27;;
10987;SDS011;5547;42.672;23.230;2023-02-22T19:18:55;6.23;;;5.20;;
10987;SDS011;5547;42.672;23.230;2023-02-22T19:21:56;6.50;;;4.95;;
10987;SDS011;5547;42.672;23.230;2023-02-22T19:24:56;6.83;;;5.00;;
10987;SDS011;5547;42.672;23.230;2023-02-22T19:27:57;8.13;;;5.28;;
10987;SDS011;5547;42.672;23.230;2023-02-22T19:34:12;8.77;;;5.40;;
10987;SDS011;5547;42.672;23.230;2023-02-22T19:37:14;7.82;;;5.38;;
10987;SDS011;5547;42.672;23.230;2023-02-22T19:40:17;6.32;;;5.47;;
10987;SDS011;5547;42.672;23.230;2023-02-22T19:43:20;8.07;;;5.40;;
10987;SDS011;5547;42.672;23.230;2023-02-22T19:46:21;7.87;;;5.33;;
10987;SDS011;5547;42.672;23.230;2023-02-22T19:49:23;6.53;;;4.97;;
10987;SDS011;5547;42.672;23.230;2023-02-22T19:52:26;7.30;;;5.47;;
10987;SDS011;5547;42.672;23.230;2023-02-22T19:55:27;47.55;;;22.67;;
10987;SDS011;5547;42.672;23.230;2023-02-22T19:58:31;110.80;;;44.63;;
10987;SDS011;5547;42.672;23.230;2023-02-22T20:01:35;106.35;;;43.40;;
10987;SDS011;5547;42.672;23.230;2023-02-22T20:04:36;57.55;;;24.42;;
10987;SDS011;5547;42.672;23.230;2023-02-22T20:07:36;21.60;;;10.33;;
10987;SDS011;5547;42.672;23.230;2023-02-22T20:10:37;27.07;;;13.37;;
10987;SDS011;5547;42.672;23.230;2023-02-22T20:13:38;53.05;;;23.25;;
10987;SDS011;5547;42.672;23.230;2023-02-22T20:16:39;33.03;;;16.15;;
10987;SDS011;5547;42.672;23.230;2023-02-22T20:19:39;49.07;;;22.23;;
10987;SDS011;5547;42.672;23.230;2023-02-22T20:22:41;38.13;;;18.30;;
10987;SDS011;5547;42.672;23.230;2023-02-22T20:25:49;30.85;;;15.18;;
10987;SDS011;5547;42.672;23.230;2023-02-22T20:29:00;14.23;;;8.60;;
10987;SDS011;5547;42.672;23.230;2023-02-22T20:32:03;30.15;;;18.45;;
10987;SDS011;5547;42.672;23.230;2023-02-22T20:35:04;45.47;;;24.02;;
10987;SDS011;5547;42.672;23.230;2023-02-22T20:38:06;55.47;;;36.58;;
10987;SDS011;5547;42.672;23.230;2023-02-22T20:44:17;62.00;;;34.13;;
10987;SDS011;5547;42.672;23.230;2023-02-22T20:47:18;61.10;;;30.85;;
10987;SDS011;5547;42.672;23.230;2023-02-22T20:50:19;61.70;;;28.60;;
10987;SDS011;5547;42.672;23.230;2023-02-22T20:53:19;46.38;;;21.63;;